createdAt,value
2019-05-18T00:00:51.747Z,14.97
2019-05-18T00:03:24.060Z,14.89
2019-05-18T00:05:56.223Z,14.90
2019-05-18T00:08:27.935Z,14.90
2019-05-18T00:11:00.595Z,14.91
2019-05-18T00:13:34.889Z,14.92
2019-05-18T00:16:06.705Z,14.91
2019-05-18T00:18:38.382Z,14.90
2019-05-18T00:21:10.051Z,14.90
2019-05-18T00:23:41.705Z,14.91
2019-05-18T00:26:14.019Z,14.89
2019-05-18T00:28:46.527Z,14.82
2019-05-18T00:31:18.187Z,14.88
2019-05-18T00:33:52.181Z,14.94
2019-05-18T00:36:23.963Z,14.90
2019-05-18T00:38:56.696Z,14.87
2019-05-18T00:41:28.800Z,14.81
2019-05-18T00:44:00.376Z,14.83
2019-05-18T00:46:32.245Z,14.83
2019-05-18T00:49:03.900Z,14.81
2019-05-18T00:51:36.923Z,14.80
2019-05-18T00:54:08.474Z,14.73
2019-05-18T00:56:40.835Z,14.73
2019-05-18T00:59:15.955Z,14.78
2019-05-18T01:01:45.758Z,14.84
2019-05-18T01:04:17.426Z,14.81
2019-05-18T01:06:49.192Z,14.85
2019-05-18T01:09:20.997Z,14.84
2019-05-18T01:11:56.956Z,14.86
2019-05-18T01:14:29.026Z,14.83
2019-05-18T01:17:00.633Z,14.80
2019-05-18T01:19:33.026Z,14.84
2019-05-18T01:22:05.021Z,14.81
2019-05-18T01:24:37.651Z,14.81
2019-05-18T01:27:09.773Z,14.86
2019-05-18T01:29:43.724Z,14.86
2019-05-18T01:32:15.615Z,14.81
2019-05-18T01:34:49.010Z,14.88
2019-05-18T01:37:21.098Z,14.90
2019-05-18T01:39:52.969Z,14.84
2019-05-18T01:42:25.268Z,14.84
2019-05-18T01:44:57.047Z,14.85
2019-05-18T01:47:29.528Z,14.84
2019-05-18T01:50:01.270Z,14.87
2019-05-18T01:52:33.751Z,14.86
2019-05-18T01:55:06.809Z,14.81
2019-05-18T01:57:38.723Z,14.78
2019-05-18T02:00:11.271Z,14.78
2019-05-18T02:02:43.069Z,14.81
2019-05-18T02:05:15.552Z,14.86
2019-05-18T02:07:47.464Z,14.90
2019-05-18T02:10:19.415Z,14.93
2019-05-18T02:12:51.016Z,14.95
2019-05-18T02:15:23.626Z,14.99
2019-05-18T02:17:56.450Z,14.98
2019-05-18T02:20:28.709Z,15.01
2019-05-18T02:23:00.612Z,14.95
2019-05-18T02:25:33.794Z,14.96
2019-05-18T02:28:06.952Z,14.97
2019-05-18T02:30:40.236Z,15.01
2019-05-18T02:33:12.338Z,14.99
2019-05-18T02:35:44.941Z,14.96
2019-05-18T02:38:17.297Z,14.95
2019-05-18T02:40:49.843Z,14.98
2019-05-18T02:43:22.243Z,14.93
2019-05-18T02:45:53.933Z,14.94
2019-05-18T02:48:25.778Z,14.86
2019-05-18T02:51:01.276Z,14.86
2019-05-18T02:53:34.986Z,14.81
2019-05-18T02:56:06.824Z,14.82
2019-05-18T02:58:39.921Z,14.84
2019-05-18T03:01:11.765Z,14.84
2019-05-18T03:03:46.317Z,14.84
2019-05-18T03:06:22.381Z,14.78
2019-05-18T03:08:55.042Z,14.82
2019-05-18T03:11:28.003Z,14.84
2019-05-18T03:14:08.209Z,14.83
2019-05-18T03:16:44.038Z,14.76
2019-05-18T03:19:17.124Z,14.75
2019-05-18T03:22:02.512Z,14.71
2019-05-18T03:24:34.115Z,14.74
2019-05-18T03:27:11.283Z,14.76
2019-05-18T03:29:45.818Z,14.80
2019-05-18T03:32:20.994Z,14.83
2019-05-18T03:34:53.440Z,14.81
2019-05-18T03:37:25.946Z,14.86
2019-05-18T03:39:57.892Z,14.89
2019-05-18T03:42:29.481Z,14.84
2019-05-18T03:45:01.274Z,14.89
2019-05-18T03:47:34.756Z,14.82
2019-05-18T03:50:11.092Z,14.85
2019-05-18T03:52:44.186Z,14.85
2019-05-18T03:55:15.888Z,14.87
2019-05-18T03:57:48.669Z,14.85
2019-05-18T04:00:24.221Z,14.91
2019-05-18T04:02:58.835Z,14.95
2019-05-18T04:05:31.986Z,14.97
2019-05-18T04:08:04.166Z,15.03
2019-05-18T04:10:37.276Z,15.05
2019-05-18T04:13:09.868Z,15.09
2019-05-18T04:15:41.860Z,15.15
2019-05-18T04:18:13.903Z,15.21
2019-05-18T04:20:45.768Z,15.25
2019-05-18T04:23:19.938Z,15.30
2019-05-18T04:25:51.885Z,15.28
2019-05-18T04:28:24.171Z,15.28
2019-05-18T04:30:57.953Z,15.24
2019-05-18T04:33:30.706Z,15.30
2019-05-18T04:36:04.992Z,15.35
2019-05-18T04:38:41.371Z,15.44
2019-05-18T04:41:18.209Z,15.43
2019-05-18T04:43:50.705Z,15.50
2019-05-18T04:46:22.639Z,15.55
2019-05-18T04:48:59.416Z,15.53
2019-05-18T04:51:41.418Z,15.52
2019-05-18T04:54:16.909Z,15.58
2019-05-18T04:56:54.417Z,15.60
2019-05-18T04:59:33.360Z,15.66
2019-05-18T05:02:10.150Z,15.70
2019-05-18T05:04:43.585Z,15.73
2019-05-18T05:07:18.499Z,15.81
2019-05-18T05:09:53.824Z,15.89
2019-05-18T05:12:36.089Z,15.96
2019-05-18T05:15:13.391Z,16.16
2019-05-18T05:17:52.125Z,16.45
2019-05-18T05:20:24.730Z,16.74
2019-05-18T05:23:05.235Z,16.96
2019-05-18T05:25:38.177Z,17.14
2019-05-18T05:28:16.249Z,17.22
2019-05-18T05:30:55.488Z,17.26
2019-05-18T05:33:40.923Z,17.34
2019-05-18T05:36:17.219Z,17.44
2019-05-18T05:38:57.678Z,17.62
2019-05-18T05:41:29.580Z,17.92
2019-05-18T05:44:01.221Z,17.89
2019-05-18T05:46:37.238Z,17.99
2019-05-18T05:49:08.209Z,18.04
2019-05-18T05:51:41.275Z,18.12
2019-05-18T05:54:14.749Z,18.26
2019-05-18T05:56:50.048Z,18.34
2019-05-18T05:59:22.004Z,18.45
2019-05-18T06:01:54.355Z,18.41
2019-05-18T06:04:27.642Z,18.46
2019-05-18T06:07:00.719Z,18.56
2019-05-18T06:09:34.576Z,18.66
2019-05-18T06:12:16.099Z,18.81
2019-05-18T06:14:48.172Z,18.80
2019-05-18T06:17:28.918Z,18.92
2019-05-18T06:20:02.741Z,19.04
2019-05-18T06:22:35.282Z,19.20
2019-05-18T06:25:09.931Z,19.32
2019-05-18T06:27:43.752Z,19.41
2019-05-18T06:30:18.805Z,19.50
2019-05-18T06:32:50.993Z,19.53
2019-05-18T06:35:26.859Z,19.59
2019-05-18T06:37:59.713Z,19.64
2019-05-18T06:40:34.303Z,19.78
2019-05-18T06:43:07.837Z,19.89
2019-05-18T06:45:43.265Z,19.92
2019-05-18T06:48:17.151Z,20.00
2019-05-18T06:51:04.935Z,20.14
2019-05-18T06:53:28.695Z,19.98
2019-05-18T06:56:03.517Z,19.94
2019-05-18T06:58:41.371Z,20.11
2019-05-18T07:01:16.185Z,20.19
2019-05-18T07:03:52.215Z,20.08
2019-05-18T07:06:27.817Z,20.10
2019-05-18T07:09:12.538Z,20.21
2019-05-18T07:11:39.342Z,20.25
2019-05-18T07:14:24.979Z,20.23
2019-05-18T07:16:45.999Z,20.40
2019-05-18T07:19:17.915Z,20.34
2019-05-18T07:21:53.374Z,20.41
2019-05-18T07:24:30.284Z,20.43
2019-05-18T07:27:10.454Z,20.50
2019-05-18T07:29:42.718Z,20.63
2019-05-18T07:32:23.270Z,20.85
2019-05-18T07:34:56.183Z,21.10
2019-05-18T07:37:34.812Z,21.12
2019-05-18T07:40:08.149Z,21.15
2019-05-18T07:42:42.232Z,21.22
2019-05-18T07:45:20.852Z,21.48
2019-05-18T07:48:00.971Z,21.53
2019-05-18T07:50:36.310Z,21.68
2019-05-18T07:53:08.350Z,21.72
2019-05-18T07:55:59.756Z,21.93
2019-05-18T07:58:31.475Z,22.03
2019-05-18T08:01:03.344Z,22.21
2019-05-18T08:03:35.158Z,22.14
2019-05-18T08:06:08.150Z,22.17
2019-05-18T08:08:40.039Z,22.36
2019-05-18T08:11:11.924Z,22.38
2019-05-18T08:13:46.344Z,22.39
2019-05-18T08:16:19.002Z,22.50
2019-05-18T08:18:51.457Z,22.66
2019-05-18T08:21:24.333Z,22.57
2019-05-18T08:23:57.234Z,22.69
2019-05-18T08:26:35.721Z,22.83
2019-05-18T08:29:17.408Z,22.65
2019-05-18T08:32:00.676Z,22.87
2019-05-18T08:34:38.740Z,23.09
2019-05-18T08:37:13.533Z,23.40
2019-05-18T08:39:48.753Z,23.45
2019-05-18T08:42:27.630Z,23.59
2019-05-18T08:45:10.807Z,23.72
2019-05-18T08:47:51.575Z,23.82
2019-05-18T08:50:31.509Z,23.95
2019-05-18T08:53:14.439Z,23.85
2019-05-18T08:55:54.038Z,24.00
2019-05-18T08:58:34.205Z,24.04
2019-05-18T09:01:10.715Z,24.11
2019-05-18T09:03:42.565Z,24.20
2019-05-18T09:06:14.913Z,24.22
2019-05-18T09:08:54.555Z,24.19
2019-05-18T09:11:37.976Z,24.36
2019-05-18T09:14:09.909Z,24.65
2019-05-18T09:16:41.654Z,24.51
2019-05-18T09:19:13.584Z,24.52
2019-05-18T09:21:45.618Z,24.78
2019-05-18T09:24:17.401Z,25.01
2019-05-18T09:26:49.283Z,25.04
2019-05-18T09:29:21.571Z,25.10
2019-05-18T09:31:53.582Z,25.43
2019-05-18T09:34:25.421Z,25.43
2019-05-18T09:36:58.277Z,25.59
2019-05-18T09:39:29.991Z,25.63
2019-05-18T09:42:07.356Z,25.71
2019-05-18T09:44:43.027Z,25.93
2019-05-18T09:47:24.533Z,25.84
2019-05-18T09:50:04.624Z,26.07
2019-05-18T09:52:49.962Z,26.62
2019-05-18T09:55:28.738Z,26.53
2019-05-18T09:58:09.034Z,26.27
2019-05-18T10:00:47.932Z,26.35
2019-05-18T10:03:30.804Z,26.67
2019-05-18T10:06:03.754Z,26.60
2019-05-18T10:08:42.157Z,26.88
2019-05-18T10:11:14.818Z,26.93
2019-05-18T10:13:46.812Z,27.29
2019-05-18T10:16:19.791Z,27.56
2019-05-18T10:19:03.812Z,27.44
2019-05-18T10:21:34.537Z,27.50
2019-05-18T10:24:06.459Z,27.20
2019-05-18T10:26:38.286Z,27.37
2019-05-18T10:29:22.570Z,26.97
2019-05-18T10:32:07.559Z,26.97
2019-05-18T10:34:43.643Z,27.00
2019-05-18T10:37:23.637Z,27.02
2019-05-18T10:40:02.694Z,26.88
2019-05-18T10:42:42.754Z,26.84
2019-05-18T10:45:24.052Z,26.65
2019-05-18T10:48:07.318Z,26.84
2019-05-18T10:50:49.651Z,26.66
2019-05-18T10:53:28.748Z,26.52
2019-05-18T10:55:56.822Z,26.28
2019-05-18T10:58:37.513Z,26.22
2019-05-18T11:01:19.354Z,26.14
2019-05-18T11:03:52.078Z,26.10
2019-05-18T11:06:24.075Z,26.06
2019-05-18T11:09:00.220Z,26.08
2019-05-18T11:11:38.257Z,26.64
2019-05-18T11:14:18.608Z,27.14
2019-05-18T11:17:04.141Z,27.70
2019-05-18T11:19:48.372Z,27.80
2019-05-18T11:22:25.051Z,27.72
2019-05-18T11:24:58.951Z,28.06
2019-05-18T11:27:31.989Z,28.28
2019-05-18T11:30:03.944Z,28.29
2019-05-18T11:32:35.768Z,27.92
2019-05-18T11:35:08.219Z,27.82
2019-05-18T11:37:42.383Z,28.07
2019-05-18T11:40:15.076Z,27.82
2019-05-18T11:42:48.510Z,28.02
2019-05-18T11:45:22.456Z,28.21
2019-05-18T11:47:54.953Z,28.75
2019-05-18T11:50:28.173Z,28.84
2019-05-18T11:53:01.064Z,29.04
2019-05-18T11:55:33.181Z,28.83
2019-05-18T11:58:06.236Z,28.92
2019-05-18T12:00:39.512Z,29.29
2019-05-18T12:03:11.777Z,29.20
2019-05-18T12:05:45.436Z,28.82
2019-05-18T12:08:18.667Z,28.43
2019-05-18T12:10:56.175Z,28.26
2019-05-18T12:13:27.916Z,28.30
2019-05-18T12:16:00.350Z,28.20
2019-05-18T12:18:33.037Z,28.54
2019-05-18T12:21:05.736Z,28.68
2019-05-18T12:23:38.352Z,28.82
2019-05-18T12:26:11.088Z,29.03
2019-05-18T12:28:42.765Z,29.03
2019-05-18T12:31:15.176Z,28.88
2019-05-18T12:33:47.129Z,28.33
2019-05-18T12:36:19.933Z,27.90
2019-05-18T12:38:52.854Z,27.73
2019-05-18T12:41:31.683Z,27.66
2019-05-18T12:44:04.003Z,27.30
2019-05-18T12:46:36.178Z,26.99
2019-05-18T12:49:08.760Z,26.88
2019-05-18T12:51:42.829Z,26.93
2019-05-18T12:54:26.955Z,26.77
2019-05-18T12:56:49.403Z,26.67
2019-05-18T12:59:22.345Z,26.28
2019-05-18T13:01:54.566Z,26.26
2019-05-18T13:04:26.777Z,26.09
2019-05-18T13:07:00.531Z,25.84
2019-05-18T13:09:33.569Z,25.47
2019-05-18T13:12:16.406Z,25.52
2019-05-18T13:14:53.076Z,25.40
2019-05-18T13:17:30.153Z,25.51
2019-05-18T13:20:08.492Z,25.35
2019-05-18T13:22:50.441Z,25.56
2019-05-18T13:25:30.998Z,25.40
2019-05-18T13:28:15.756Z,25.18
2019-05-18T13:30:55.926Z,25.30
2019-05-18T13:33:36.788Z,25.10
2019-05-18T13:36:19.577Z,24.87
2019-05-18T13:39:01.511Z,24.85
2019-05-18T13:41:39.880Z,24.96
2019-05-18T13:44:20.383Z,24.88
2019-05-18T13:46:54.167Z,24.91
2019-05-18T13:49:26.086Z,25.03
2019-05-18T13:52:03.457Z,24.83
2019-05-18T13:54:36.472Z,25.02
2019-05-18T13:57:15.553Z,25.18
2019-05-18T13:59:51.585Z,25.31
2019-05-18T14:02:23.886Z,25.29
2019-05-18T14:04:55.800Z,25.23
2019-05-18T14:07:33.333Z,25.17
2019-05-18T14:10:08.418Z,25.31
2019-05-18T14:12:40.681Z,25.23
2019-05-18T14:15:16.207Z,25.31
2019-05-18T14:17:49.480Z,25.14
2019-05-18T14:20:21.933Z,25.17
2019-05-18T14:22:57.181Z,25.33
2019-05-18T14:25:30.977Z,25.32
2019-05-18T14:28:03.353Z,25.40
2019-05-18T14:30:35.322Z,25.05
2019-05-18T14:33:12.227Z,25.25
2019-05-18T14:35:44.849Z,25.27
2019-05-18T14:38:17.252Z,25.29
2019-05-18T14:40:49.337Z,25.46
2019-05-18T14:43:22.227Z,25.46
2019-05-18T14:45:55.604Z,25.56
2019-05-18T14:48:29.847Z,25.78
2019-05-18T14:51:02.209Z,25.81
2019-05-18T14:53:34.339Z,25.76
2019-05-18T14:56:08.022Z,25.83
2019-05-18T14:58:40.272Z,25.74
2019-05-18T15:01:16.464Z,25.69
2019-05-18T15:03:49.011Z,25.78
2019-05-18T15:06:20.902Z,25.94
2019-05-18T15:08:52.762Z,25.79
2019-05-18T15:11:25.244Z,25.74
2019-05-18T15:13:57.832Z,25.77
2019-05-18T15:16:29.800Z,25.77
2019-05-18T15:19:02.547Z,25.63
2019-05-18T15:21:34.799Z,25.72
2019-05-18T15:24:08.836Z,25.68
2019-05-18T15:26:41.284Z,25.50
2019-05-18T15:29:18.573Z,25.45
2019-05-18T15:31:53.699Z,25.40
2019-05-18T15:34:26.739Z,25.22
2019-05-18T15:36:58.942Z,24.99
2019-05-18T15:39:30.793Z,24.92
2019-05-18T15:42:08.830Z,24.88
2019-05-18T15:44:51.569Z,24.58
2019-05-18T15:47:40.447Z,24.56
2019-05-18T15:50:25.255Z,24.63
2019-05-18T15:53:09.588Z,24.68
2019-05-18T15:56:04.749Z,24.68
2019-05-18T15:58:46.632Z,24.64
2019-05-18T16:01:29.967Z,24.60
2019-05-18T16:04:10.334Z,24.51
2019-05-18T16:06:56.297Z,24.37
2019-05-18T16:09:45.336Z,24.29
2019-05-18T16:12:24.555Z,24.33
2019-05-18T16:15:11.442Z,24.21
2019-05-18T16:18:00.157Z,24.13
2019-05-18T16:20:40.139Z,23.98
2019-05-18T16:23:22.894Z,23.92
2019-05-18T16:26:20.802Z,23.85
2019-05-18T16:28:52.597Z,23.80
2019-05-18T16:31:34.994Z,23.70
2019-05-18T16:34:14.954Z,23.61
2019-05-18T16:37:00.715Z,23.63
2019-05-18T16:39:38.731Z,23.64
2019-05-18T16:42:24.104Z,23.58
2019-05-18T16:45:00.970Z,23.63
2019-05-18T16:47:32.903Z,23.57
2019-05-18T16:50:04.835Z,23.42
2019-05-18T16:52:46.419Z,23.25
2019-05-18T16:55:29.951Z,23.10
2019-05-18T16:58:15.454Z,22.97
2019-05-18T17:01:08.420Z,22.98
2019-05-18T17:03:41.732Z,22.98
2019-05-18T17:06:26.561Z,22.87
2019-05-18T17:09:11.077Z,22.81
2019-05-18T17:11:58.129Z,22.71
2019-05-18T17:14:41.800Z,22.67
2019-05-18T17:17:25.086Z,22.64
2019-05-18T17:19:57.556Z,22.64
2019-05-18T17:22:29.585Z,22.66
2019-05-18T17:25:01.501Z,22.46
2019-05-18T17:27:36.242Z,22.27
2019-05-18T17:30:08.840Z,22.14
2019-05-18T17:32:40.456Z,22.15
2019-05-18T17:35:21.623Z,22.10
2019-05-18T17:37:55.026Z,22.07
2019-05-18T17:40:26.855Z,21.95
2019-05-18T17:43:00.207Z,21.92
2019-05-18T17:45:32.217Z,21.88
2019-05-18T17:48:04.374Z,21.72
2019-05-18T17:50:36.041Z,21.61
2019-05-18T17:53:08.021Z,21.57
2019-05-18T17:55:39.630Z,21.58
2019-05-18T17:58:11.241Z,21.46
2019-05-18T18:00:42.962Z,21.41
2019-05-18T18:03:15.247Z,21.37
2019-05-18T18:05:47.017Z,21.21
2019-05-18T18:08:18.788Z,21.13
2019-05-18T18:10:50.646Z,20.98
2019-05-18T18:13:25.809Z,20.94
2019-05-18T18:15:58.732Z,20.88
2019-05-18T18:18:30.966Z,20.86
2019-05-18T18:21:03.059Z,20.78
2019-05-18T18:23:35.183Z,20.76
2019-05-18T18:26:07.299Z,20.74
2019-05-18T18:28:39.213Z,20.69
2019-05-18T18:31:11.339Z,20.68
2019-05-18T18:33:43.193Z,20.62
2019-05-18T18:36:15.049Z,20.54
2019-05-18T18:38:46.791Z,20.52
2019-05-18T18:41:18.434Z,20.45
2019-05-18T18:43:50.076Z,20.38
2019-05-18T18:46:22.309Z,20.32
2019-05-18T18:48:54.414Z,20.29
2019-05-18T18:51:26.393Z,20.29
2019-05-18T18:53:58.346Z,20.24
2019-05-18T18:56:29.983Z,20.22
2019-05-18T18:59:01.809Z,20.23
2019-05-18T19:01:33.477Z,20.12
2019-05-18T19:04:05.379Z,20.01
2019-05-18T19:06:37.305Z,19.95
2019-05-18T19:09:09.467Z,19.96
2019-05-18T19:11:41.247Z,20.02
2019-05-18T19:14:13.109Z,19.92
2019-05-18T19:16:44.648Z,19.96
2019-05-18T19:19:17.005Z,19.93
2019-05-18T19:21:49.564Z,19.87
2019-05-18T19:24:21.388Z,19.82
2019-05-18T19:26:53.862Z,19.81
2019-05-18T19:29:25.706Z,19.69
2019-05-18T19:32:00.317Z,19.65
2019-05-18T19:34:32.752Z,19.57
2019-05-18T19:37:04.699Z,19.57
2019-05-18T19:39:36.642Z,19.55
2019-05-18T19:42:09.498Z,19.54
2019-05-18T19:44:42.639Z,19.51
2019-05-18T19:47:15.037Z,19.50
2019-05-18T19:49:46.924Z,19.49
2019-05-18T19:52:18.751Z,19.41
2019-05-18T19:54:50.772Z,19.37
2019-05-18T19:57:22.650Z,19.41
2019-05-18T19:59:54.545Z,19.33
2019-05-18T20:02:26.167Z,19.34
2019-05-18T20:05:07.167Z,19.33
2019-05-18T20:07:33.869Z,19.33
2019-05-18T20:10:05.969Z,19.29
2019-05-18T20:12:37.906Z,19.38
2019-05-18T20:15:11.038Z,19.37
2019-05-18T20:17:42.788Z,19.43
2019-05-18T20:20:14.920Z,19.42
2019-05-18T20:22:46.719Z,19.38
2019-05-18T20:25:20.105Z,19.45
2019-05-18T20:27:52.050Z,19.37
2019-05-18T20:30:24.213Z,19.38
2019-05-18T20:32:56.076Z,19.30
2019-05-18T20:35:28.514Z,19.31
2019-05-18T20:38:01.422Z,19.20
2019-05-18T20:40:33.342Z,19.19
2019-05-18T20:43:05.459Z,19.15
2019-05-18T20:45:43.612Z,19.11
2019-05-18T20:48:16.980Z,19.13
2019-05-18T20:50:51.642Z,19.07
2019-05-18T20:53:23.440Z,19.07
2019-05-18T20:55:55.439Z,18.99
2019-05-18T20:58:39.302Z,18.89
2019-05-18T21:01:02.881Z,18.84
2019-05-18T21:03:35.664Z,18.90
2019-05-18T21:06:07.421Z,18.91
2019-05-18T21:08:39.366Z,18.87
2019-05-18T21:11:11.318Z,18.94
2019-05-18T21:13:43.149Z,18.88
2019-05-18T21:16:16.128Z,18.86
2019-05-18T21:18:47.688Z,18.90
2019-05-18T21:21:24.605Z,18.92
2019-05-18T21:23:52.466Z,18.86
2019-05-18T21:26:24.073Z,18.84
2019-05-18T21:29:00.544Z,18.76
2019-05-18T21:31:29.110Z,18.70
2019-05-18T21:34:00.736Z,18.65
2019-05-18T21:36:32.644Z,18.58
2019-05-18T21:39:04.715Z,18.58
2019-05-18T21:41:36.360Z,18.53
2019-05-18T21:44:09.028Z,18.47
2019-05-18T21:46:40.720Z,18.54
2019-05-18T21:49:12.356Z,18.53
2019-05-18T21:51:44.063Z,18.46
2019-05-18T21:54:15.734Z,18.48
2019-05-18T21:56:47.418Z,18.53
2019-05-18T21:59:19.114Z,18.47
2019-05-18T22:01:50.941Z,18.49
2019-05-18T22:04:23.092Z,18.51
2019-05-18T22:06:54.856Z,18.50
2019-05-18T22:09:26.739Z,18.41
2019-05-18T22:11:58.549Z,18.37
2019-05-18T22:14:30.423Z,18.36
2019-05-18T22:17:02.234Z,18.32
2019-05-18T22:19:33.939Z,18.31
2019-05-18T22:22:08.730Z,18.30
2019-05-18T22:24:40.319Z,18.36
2019-05-18T22:27:12.488Z,18.24
2019-05-18T22:29:44.363Z,18.25
2019-05-18T22:32:16.384Z,18.17
2019-05-18T22:34:48.228Z,18.21
2019-05-18T22:37:20.364Z,18.22
2019-05-18T22:39:52.210Z,18.28
2019-05-18T22:42:24.485Z,18.22
2019-05-18T22:44:56.561Z,18.15
2019-05-18T22:47:29.078Z,18.09
2019-05-18T22:50:01.946Z,17.94
2019-05-18T22:52:34.303Z,17.92
2019-05-18T22:55:06.312Z,17.94
2019-05-18T22:57:38.091Z,18.03
2019-05-18T23:00:10.408Z,18.00
2019-05-18T23:02:43.553Z,17.91
2019-05-18T23:05:16.224Z,17.95
2019-05-18T23:07:48.095Z,17.93
2019-05-18T23:10:20.208Z,17.89
2019-05-18T23:12:51.959Z,17.97
2019-05-18T23:15:23.868Z,17.98
2019-05-18T23:17:55.714Z,17.90
2019-05-18T23:20:27.581Z,17.91
2019-05-18T23:23:00.013Z,17.77
2019-05-18T23:25:31.729Z,17.80
2019-05-18T23:28:04.069Z,17.71
2019-05-18T23:30:35.834Z,17.66
2019-05-18T23:33:07.623Z,17.68
2019-05-18T23:35:39.471Z,17.67
2019-05-18T23:38:11.492Z,17.67
2019-05-18T23:40:45.765Z,17.62
2019-05-18T23:43:18.063Z,17.54
2019-05-18T23:45:50.353Z,17.58
2019-05-18T23:48:24.101Z,17.58
2019-05-18T23:50:56.075Z,17.57
2019-05-18T23:53:27.988Z,17.60
2019-05-18T23:56:00.406Z,17.58
2019-05-18T23:58:33.105Z,17.56
